sensor_id;sensor_type;location;lat;lon;timestamp;pressure;altitude;pressure_sealevel;temperature;humidity
18201;BME280;9226;47.858;9.594;2022-10-01T00:00:59;95069.63;;;8.77;82.55
18201;BME280;9226;47.858;9.594;2022-10-01T00:03:26;95068.53;;;8.79;82.52
18201;BME280;9226;47.858;9.594;2022-10-01T00:06:05;95066.16;;;8.76;83.27
18201;BME280;9226;47.858;9.594;2022-10-01T00:08:33;95069.28;;;8.70;84.18
18201;BME280;9226;47.858;9.594;2022-10-01T00:10:58;95072.16;;;8.78;82.40
18201;BME280;9226;47.858;9.594;2022-10-01T00:13:26;95074.78;;;8.78;82.94
18201;BME280;9226;47.858;9.594;2022-10-01T00:15:51;95069.75;;;8.75;83.21
18201;BME280;9226;47.858;9.594;2022-10-01T00:18:17;95057.97;;;8.68;83.76
18201;BME280;9226;47.858;9.594;2022-10-01T00:20:43;95066.41;;;8.73;83.33
18201;BME280;9226;47.858;9.594;2022-10-01T00:23:13;95060.38;;;8.71;83.83
18201;BME280;9226;47.858;9.594;2022-10-01T00:25:39;95060.97;;;8.75;83.68
18201;BME280;9226;47.858;9.594;2022-10-01T00:28:05;95054.59;;;8.77;83.11
18201;BME280;9226;47.858;9.594;2022-10-01T00:30:31;95064.09;;;8.80;83.18
18201;BME280;9226;47.858;9.594;2022-10-01T00:32:57;95062.63;;;8.76;83.50
18201;BME280;9226;47.858;9.594;2022-10-01T00:35:22;95071.44;;;8.76;83.39
18201;BME280;9226;47.858;9.594;2022-10-01T00:37:48;95074.66;;;8.80;83.22
18201;BME280;9226;47.858;9.594;2022-10-01T00:40:18;95071.31;;;8.78;83.35
18201;BME280;9226;47.858;9.594;2022-10-01T00:42:44;95074.44;;;8.83;83.76
18201;BME280;9226;47.858;9.594;2022-10-01T00:45:12;95070.09;;;8.82;85.66
18201;BME280;9226;47.858;9.594;2022-10-01T00:47:40;95069.97;;;8.83;86.94
18201;BME280;9226;47.858;9.594;2022-10-01T00:50:28;95069.81;;;8.96;86.87
18201;BME280;9226;47.858;9.594;2022-10-01T00:53:05;95067.66;;;9.01;87.18
18201;BME280;9226;47.858;9.594;2022-10-01T00:55:35;95074.63;;;9.02;86.92
18201;BME280;9226;47.858;9.594;2022-10-01T00:58:04;95076.06;;;9.07;85.66
18201;BME280;9226;47.858;9.594;2022-10-01T01:00:32;95078.13;;;9.03;87.27
18201;BME280;9226;47.858;9.594;2022-10-01T01:02:57;95083.13;;;9.06;87.34
18201;BME280;9226;47.858;9.594;2022-10-01T01:05:23;95077.84;;;9.06;86.88
18201;BME280;9226;47.858;9.594;2022-10-01T01:07:50;95066.44;;;9.05;86.30
18201;BME280;9226;47.858;9.594;2022-10-01T01:11:06;95071.72;;;9.05;85.86
18201;BME280;9226;47.858;9.594;2022-10-01T01:15:46;95075.25;;;8.83;85.83
18201;BME280;9226;47.858;9.594;2022-10-01T01:26:52;95068.28;;;8.71;90.01
18201;BME280;9226;47.858;9.594;2022-10-01T01:29:37;95062.63;;;8.76;90.62
18201;BME280;9226;47.858;9.594;2022-10-01T01:32:14;95061.56;;;8.78;90.91
18201;BME280;9226;47.858;9.594;2022-10-01T01:34:46;95063.00;;;8.82;90.55
18201;BME280;9226;47.858;9.594;2022-10-01T01:37:17;95069.47;;;8.90;90.39
18201;BME280;9226;47.858;9.594;2022-10-01T01:39:49;95073.06;;;9.00;88.76
18201;BME280;9226;47.858;9.594;2022-10-01T01:42:25;95075.72;;;9.00;88.79
18201;BME280;9226;47.858;9.594;2022-10-01T01:44:56;95076.88;;;9.07;87.76
18201;BME280;9226;47.858;9.594;2022-10-01T01:47:28;95072.72;;;9.04;88.38
18201;BME280;9226;47.858;9.594;2022-10-01T01:49:54;95070.19;;;9.03;89.69
18201;BME280;9226;47.858;9.594;2022-10-01T01:52:23;95062.75;;;8.97;91.03
18201;BME280;9226;47.858;9.594;2022-10-01T01:54:50;95053.34;;;8.93;90.09
18201;BME280;9226;47.858;9.594;2022-10-01T01:57:17;95067.28;;;8.95;87.97
18201;BME280;9226;47.858;9.594;2022-10-01T01:59:46;95065.78;;;8.81;88.20
18201;BME280;9226;47.858;9.594;2022-10-01T02:02:21;95064.19;;;8.90;88.16
18201;BME280;9226;47.858;9.594;2022-10-01T02:04:53;95055.88;;;8.94;89.20
18201;BME280;9226;47.858;9.594;2022-10-01T02:07:29;95045.53;;;8.91;90.21
18201;BME280;9226;47.858;9.594;2022-10-01T02:12:58;95043.47;;;8.95;91.11
18201;BME280;9226;47.858;9.594;2022-10-01T02:21:17;95029.00;;;9.10;90.77
18201;BME280;9226;47.858;9.594;2022-10-01T02:23:56;95037.44;;;9.04;91.57
18201;BME280;9226;47.858;9.594;2022-10-01T02:26:25;95042.94;;;9.12;91.27
18201;BME280;9226;47.858;9.594;2022-10-01T02:28:55;95038.63;;;9.11;91.23
18201;BME280;9226;47.858;9.594;2022-10-01T02:31:23;95024.91;;;9.17;91.48
18201;BME280;9226;47.858;9.594;2022-10-01T02:33:51;95025.81;;;9.28;90.25
18201;BME280;9226;47.858;9.594;2022-10-01T02:36:18;95028.91;;;9.33;90.71
18201;BME280;9226;47.858;9.594;2022-10-01T02:38:45;95020.31;;;9.40;89.69
18201;BME280;9226;47.858;9.594;2022-10-01T02:41:16;95031.53;;;9.44;89.97
18201;BME280;9226;47.858;9.594;2022-10-01T02:43:56;95022.16;;;9.40;90.53
18201;BME280;9226;47.858;9.594;2022-10-01T02:49:01;95015.16;;;9.39;90.79
18201;BME280;9226;47.858;9.594;2022-10-01T02:54:23;95013.03;;;9.33;90.86
18201;BME280;9226;47.858;9.594;2022-10-01T02:56:52;95013.25;;;9.41;89.79
18201;BME280;9226;47.858;9.594;2022-10-01T02:59:36;95012.25;;;9.42;89.30
18201;BME280;9226;47.858;9.594;2022-10-01T03:02:05;95014.19;;;9.40;89.40
18201;BME280;9226;47.858;9.594;2022-10-01T03:04:30;95022.38;;;9.16;91.61
18201;BME280;9226;47.858;9.594;2022-10-01T03:06:57;95014.06;;;9.20;91.85
18201;BME280;9226;47.858;9.594;2022-10-01T03:09:29;95017.28;;;9.24;92.20
18201;BME280;9226;47.858;9.594;2022-10-01T03:11:56;95016.59;;;9.22;91.98
18201;BME280;9226;47.858;9.594;2022-10-01T03:14:22;95024.59;;;9.32;91.33
18201;BME280;9226;47.858;9.594;2022-10-01T03:16:49;95023.97;;;9.39;90.93
18201;BME280;9226;47.858;9.594;2022-10-01T03:19:15;95030.78;;;9.42;91.54
18201;BME280;9226;47.858;9.594;2022-10-01T03:21:40;95019.75;;;9.37;92.43
18201;BME280;9226;47.858;9.594;2022-10-01T03:24:06;95016.16;;;9.38;93.20
18201;BME280;9226;47.858;9.594;2022-10-01T03:26:31;95017.22;;;9.56;91.20
18201;BME280;9226;47.858;9.594;2022-10-01T03:28:57;95021.56;;;9.57;91.89
18201;BME280;9226;47.858;9.594;2022-10-01T03:31:23;95017.22;;;9.56;92.62
18201;BME280;9226;47.858;9.594;2022-10-01T03:33:48;95019.63;;;9.59;92.59
18201;BME280;9226;47.858;9.594;2022-10-01T03:36:14;95012.16;;;9.65;92.25
18201;BME280;9226;47.858;9.594;2022-10-01T03:38:39;95008.25;;;9.69;91.95
18201;BME280;9226;47.858;9.594;2022-10-01T03:41:06;95011.22;;;9.75;91.15
18201;BME280;9226;47.858;9.594;2022-10-01T03:43:31;95004.13;;;9.76;91.38
18201;BME280;9226;47.858;9.594;2022-10-01T03:45:57;94999.66;;;9.76;91.61
18201;BME280;9226;47.858;9.594;2022-10-01T03:48:23;94996.00;;;9.68;92.17
18201;BME280;9226;47.858;9.594;2022-10-01T03:50:52;94999.53;;;9.78;91.77
18201;BME280;9226;47.858;9.594;2022-10-01T03:53:19;94998.69;;;9.77;91.74
18201;BME280;9226;47.858;9.594;2022-10-01T03:55:46;95002.69;;;9.72;92.54
18201;BME280;9226;47.858;9.594;2022-10-01T03:58:12;95009.69;;;9.73;92.68
18201;BME280;9226;47.858;9.594;2022-10-01T04:00:37;95006.06;;;9.74;92.18
18201;BME280;9226;47.858;9.594;2022-10-01T04:03:03;94997.72;;;9.78;91.45
18201;BME280;9226;47.858;9.594;2022-10-01T04:05:29;94998.84;;;9.76;91.62
18201;BME280;9226;47.858;9.594;2022-10-01T04:07:54;94999.78;;;9.75;91.48
18201;BME280;9226;47.858;9.594;2022-10-01T04:10:19;95000.38;;;9.78;91.19
18201;BME280;9226;47.858;9.594;2022-10-01T04:12:45;94993.16;;;9.81;90.67
18201;BME280;9226;47.858;9.594;2022-10-01T04:15:10;94985.97;;;9.71;91.30
18201;BME280;9226;47.858;9.594;2022-10-01T04:17:36;94989.72;;;9.69;91.53
18201;BME280;9226;47.858;9.594;2022-10-01T04:20:03;94988.75;;;9.70;91.27
18201;BME280;9226;47.858;9.594;2022-10-01T04:22:28;94982.88;;;9.66;91.32
18201;BME280;9226;47.858;9.594;2022-10-01T04:24:54;94978.41;;;9.67;91.09
18201;BME280;9226;47.858;9.594;2022-10-01T04:27:19;94983.84;;;9.65;90.88
18201;BME280;9226;47.858;9.594;2022-10-01T04:29:46;94987.59;;;9.63;91.03
18201;BME280;9226;47.858;9.594;2022-10-01T04:32:12;94985.78;;;9.63;90.95
18201;BME280;9226;47.858;9.594;2022-10-01T04:34:38;94998.19;;;9.63;91.03
18201;BME280;9226;47.858;9.594;2022-10-01T04:37:25;95000.13;;;9.60;91.50
18201;BME280;9226;47.858;9.594;2022-10-01T04:39:51;94993.13;;;9.59;91.24
18201;BME280;9226;47.858;9.594;2022-10-01T04:42:20;94990.38;;;9.61;91.54
18201;BME280;9226;47.858;9.594;2022-10-01T04:44:46;94992.13;;;9.51;92.34
18201;BME280;9226;47.858;9.594;2022-10-01T04:47:11;94991.56;;;9.47;92.64
18201;BME280;9226;47.858;9.594;2022-10-01T04:49:37;94995.16;;;9.46;92.50
18201;BME280;9226;47.858;9.594;2022-10-01T04:52:05;94988.91;;;9.47;92.39
18201;BME280;9226;47.858;9.594;2022-10-01T04:54:30;94983.88;;;9.44;92.60
18201;BME280;9226;47.858;9.594;2022-10-01T04:56:56;94990.44;;;9.50;91.88
18201;BME280;9226;47.858;9.594;2022-10-01T04:59:22;94989.72;;;9.48;92.22
18201;BME280;9226;47.858;9.594;2022-10-01T05:01:48;94993.34;;;9.47;92.31
18201;BME280;9226;47.858;9.594;2022-10-01T05:04:13;94995.84;;;9.48;92.17
18201;BME280;9226;47.858;9.594;2022-10-01T05:06:39;94998.31;;;9.40;93.37
18201;BME280;9226;47.858;9.594;2022-10-01T05:09:05;95002.66;;;9.41;93.77
18201;BME280;9226;47.858;9.594;2022-10-01T05:11:31;95004.19;;;9.44;93.78
18201;BME280;9226;47.858;9.594;2022-10-01T05:13:56;95016.78;;;9.51;93.23
18201;BME280;9226;47.858;9.594;2022-10-01T05:16:21;95006.91;;;9.53;93.16
18201;BME280;9226;47.858;9.594;2022-10-01T05:18:47;95003.53;;;9.51;93.56
18201;BME280;9226;47.858;9.594;2022-10-01T05:21:12;95002.06;;;9.58;92.92
18201;BME280;9226;47.858;9.594;2022-10-01T05:23:40;95015.44;;;9.57;93.22
18201;BME280;9226;47.858;9.594;2022-10-01T05:26:06;95015.31;;;9.58;93.18
18201;BME280;9226;47.858;9.594;2022-10-01T05:28:31;95014.06;;;9.63;92.63
18201;BME280;9226;47.858;9.594;2022-10-01T05:31:01;95021.19;;;9.62;92.91
18201;BME280;9226;47.858;9.594;2022-10-01T05:33:28;95023.00;;;9.62;92.98
18201;BME280;9226;47.858;9.594;2022-10-01T05:35:55;95019.50;;;9.61;93.03
18201;BME280;9226;47.858;9.594;2022-10-01T05:38:21;95022.66;;;9.55;93.84
18201;BME280;9226;47.858;9.594;2022-10-01T05:40:46;95016.47;;;9.66;92.48
18201;BME280;9226;47.858;9.594;2022-10-01T05:43:12;95006.84;;;9.65;92.17
18201;BME280;9226;47.858;9.594;2022-10-01T05:45:39;95008.59;;;9.54;92.72
18201;BME280;9226;47.858;9.594;2022-10-01T05:48:07;95010.03;;;9.58;92.28
18201;BME280;9226;47.858;9.594;2022-10-01T05:50:35;95007.75;;;9.54;92.86
18201;BME280;9226;47.858;9.594;2022-10-01T05:53:03;95006.00;;;9.43;93.48
18201;BME280;9226;47.858;9.594;2022-10-01T05:55:30;95014.25;;;9.50;93.10
18201;BME280;9226;47.858;9.594;2022-10-01T05:58:05;95006.97;;;9.42;94.03
18201;BME280;9226;47.858;9.594;2022-10-01T06:00:31;95005.75;;;9.46;93.56
18201;BME280;9226;47.858;9.594;2022-10-01T06:02:59;95005.03;;;9.44;93.67
18201;BME280;9226;47.858;9.594;2022-10-01T06:05:25;95004.06;;;9.45;93.56
18201;BME280;9226;47.858;9.594;2022-10-01T06:07:51;94996.16;;;9.55;92.65
18201;BME280;9226;47.858;9.594;2022-10-01T06:10:17;95008.72;;;9.53;92.64
18201;BME280;9226;47.858;9.594;2022-10-01T06:12:43;95003.34;;;9.43;92.99
18201;BME280;9226;47.858;9.594;2022-10-01T06:15:10;95007.44;;;9.47;92.91
18201;BME280;9226;47.858;9.594;2022-10-01T06:17:36;95008.72;;;9.53;92.77
18201;BME280;9226;47.858;9.594;2022-10-01T06:20:08;95022.53;;;9.56;92.36
18201;BME280;9226;47.858;9.594;2022-10-01T06:22:36;95023.00;;;9.62;92.35
18201;BME280;9226;47.858;9.594;2022-10-01T06:25:01;95016.72;;;9.63;92.62
18201;BME280;9226;47.858;9.594;2022-10-01T06:27:27;95019.09;;;9.66;92.59
18201;BME280;9226;47.858;9.594;2022-10-01T06:29:52;95018.41;;;9.64;92.17
18201;BME280;9226;47.858;9.594;2022-10-01T06:32:18;95029.97;;;9.63;92.37
18201;BME280;9226;47.858;9.594;2022-10-01T06:34:44;95017.19;;;9.68;92.44
18201;BME280;9226;47.858;9.594;2022-10-01T06:37:09;95011.34;;;9.74;91.86
18201;BME280;9226;47.858;9.594;2022-10-01T06:39:34;95011.09;;;9.77;91.50
18201;BME280;9226;47.858;9.594;2022-10-01T06:42:00;95016.38;;;9.77;91.79
18201;BME280;9226;47.858;9.594;2022-10-01T06:44:25;95010.84;;;9.80;91.85
18201;BME280;9226;47.858;9.594;2022-10-01T06:46:51;95009.16;;;9.79;91.83
18201;BME280;9226;47.858;9.594;2022-10-01T06:49:17;94999.53;;;9.78;91.93
18201;BME280;9226;47.858;9.594;2022-10-01T06:51:45;94998.31;;;9.82;91.71
18201;BME280;9226;47.858;9.594;2022-10-01T06:54:28;95004.75;;;9.89;91.23
18201;BME280;9226;47.858;9.594;2022-10-01T06:56:54;95006.44;;;9.90;90.95
18201;BME280;9226;47.858;9.594;2022-10-01T06:59:19;94999.72;;;9.86;90.82
18201;BME280;9226;47.858;9.594;2022-10-01T07:01:48;94993.19;;;9.90;90.98
18201;BME280;9226;47.858;9.594;2022-10-01T07:04:13;94982.16;;;9.85;91.47
18201;BME280;9226;47.858;9.594;2022-10-01T07:06:39;94988.97;;;9.88;91.10
18201;BME280;9226;47.858;9.594;2022-10-01T07:09:04;94981.06;;;9.98;90.84
18201;BME280;9226;47.858;9.594;2022-10-01T07:11:29;94984.44;;;10.00;90.62
18201;BME280;9226;47.858;9.594;2022-10-01T07:13:55;94985.16;;;10.02;90.71
18201;BME280;9226;47.858;9.594;2022-10-01T07:16:21;94976.78;;;9.96;90.59
18201;BME280;9226;47.858;9.594;2022-10-01T07:18:47;94982.25;;;10.05;90.07
18201;BME280;9226;47.858;9.594;2022-10-01T07:21:12;94970.22;;;10.01;90.00
18201;BME280;9226;47.858;9.594;2022-10-01T07:23:38;94977.47;;;9.99;89.92
18201;BME280;9226;47.858;9.594;2022-10-01T07:26:05;94977.28;;;9.90;90.02
18201;BME280;9226;47.858;9.594;2022-10-01T07:28:32;94977.38;;;10.10;89.41
18201;BME280;9226;47.858;9.594;2022-10-01T07:30:59;94974.44;;;10.13;89.40
18201;BME280;9226;47.858;9.594;2022-10-01T07:33:25;94975.72;;;10.09;89.52
18201;BME280;9226;47.858;9.594;2022-10-01T07:35:51;94979.50;;;10.16;89.53
18201;BME280;9226;47.858;9.594;2022-10-01T07:38:16;94980.03;;;10.10;88.91
18201;BME280;9226;47.858;9.594;2022-10-01T07:40:42;94982.31;;;10.24;89.05
18201;BME280;9226;47.858;9.594;2022-10-01T07:43:07;94973.13;;;10.28;88.37
18201;BME280;9226;47.858;9.594;2022-10-01T07:45:33;94975.69;;;10.40;87.96
18201;BME280;9226;47.858;9.594;2022-10-01T07:48:00;94979.03;;;10.42;87.36
18201;BME280;9226;47.858;9.594;2022-10-01T07:50:27;94975.81;;;10.38;85.72
18201;BME280;9226;47.858;9.594;2022-10-01T07:52:55;94974.63;;;10.52;86.02
18201;BME280;9226;47.858;9.594;2022-10-01T07:55:23;94968.50;;;10.61;85.09
18201;BME280;9226;47.858;9.594;2022-10-01T07:57:55;94968.66;;;10.70;85.14
18201;BME280;9226;47.858;9.594;2022-10-01T08:00:23;94963.47;;;10.68;84.42
18201;BME280;9226;47.858;9.594;2022-10-01T08:02:51;94966.13;;;10.78;84.12
18201;BME280;9226;47.858;9.594;2022-10-01T08:05:19;94977.22;;;10.93;84.33
18201;BME280;9226;47.858;9.594;2022-10-01T08:07:46;94982.94;;;10.88;83.82
18201;BME280;9226;47.858;9.594;2022-10-01T08:10:14;94976.63;;;10.89;83.57
18201;BME280;9226;47.858;9.594;2022-10-01T08:12:40;94973.28;;;10.87;82.44
18201;BME280;9226;47.858;9.594;2022-10-01T08:15:13;94974.69;;;10.91;82.18
18201;BME280;9226;47.858;9.594;2022-10-01T08:17:39;94973.28;;;10.87;82.34
18201;BME280;9226;47.858;9.594;2022-10-01T08:20:08;94969.09;;;11.04;82.08
18201;BME280;9226;47.858;9.594;2022-10-01T08:22:34;94964.63;;;11.04;81.29
18201;BME280;9226;47.858;9.594;2022-10-01T08:24:59;94958.63;;;11.02;80.35
18201;BME280;9226;47.858;9.594;2022-10-01T08:27:26;94967.97;;;11.16;79.81
18201;BME280;9226;47.858;9.594;2022-10-01T08:29:51;94956.38;;;11.27;79.71
18201;BME280;9226;47.858;9.594;2022-10-01T08:32:18;94953.03;;;11.15;78.65
18201;BME280;9226;47.858;9.594;2022-10-01T08:34:43;94962.97;;;11.23;79.97
18201;BME280;9226;47.858;9.594;2022-10-01T08:37:09;94965.75;;;11.12;79.02
18201;BME280;9226;47.858;9.594;2022-10-01T08:39:34;94965.19;;;11.08;79.61
18201;BME280;9226;47.858;9.594;2022-10-01T08:44:42;94963.34;;;10.99;79.22
18201;BME280;9226;47.858;9.594;2022-10-01T08:49:56;94956.09;;;11.11;79.62
18201;BME280;9226;47.858;9.594;2022-10-01T08:52:28;94955.97;;;11.22;79.19
18201;BME280;9226;47.858;9.594;2022-10-01T08:55:03;94956.38;;;11.17;78.67
18201;BME280;9226;47.858;9.594;2022-10-01T08:57:33;94947.16;;;11.02;78.87
18201;BME280;9226;47.858;9.594;2022-10-01T09:00:05;94959.19;;;11.16;79.17
18201;BME280;9226;47.858;9.594;2022-10-01T09:02:38;94943.81;;;11.10;78.62
18201;BME280;9226;47.858;9.594;2022-10-01T09:10:55;94972.03;;;11.01;79.31
18201;BME280;9226;47.858;9.594;2022-10-01T09:24:22;94983.94;;;11.26;78.15
18201;BME280;9226;47.858;9.594;2022-10-01T09:26:52;94968.81;;;11.17;78.90
18201;BME280;9226;47.858;9.594;2022-10-01T09:29:34;94981.25;;;11.16;79.06
18201;BME280;9226;47.858;9.594;2022-10-01T09:32:04;94974.69;;;11.11;79.54
18201;BME280;9226;47.858;9.594;2022-10-01T09:34:36;94976.38;;;11.12;79.59
18201;BME280;9226;47.858;9.594;2022-10-01T09:37:17;94957.94;;;11.20;79.18
18201;BME280;9226;47.858;9.594;2022-10-01T09:40:02;94980.56;;;11.14;79.00
18201;BME280;9226;47.858;9.594;2022-10-01T09:42:30;94964.91;;;11.11;78.87
18201;BME280;9226;47.858;9.594;2022-10-01T09:44:56;94971.91;;;11.22;79.62
18201;BME280;9226;47.858;9.594;2022-10-01T09:47:22;94970.06;;;11.13;79.77
18201;BME280;9226;47.858;9.594;2022-10-01T09:49:49;94958.75;;;11.20;79.58
18201;BME280;9226;47.858;9.594;2022-10-01T09:52:23;94976.22;;;11.23;80.16
18201;BME280;9226;47.858;9.594;2022-10-01T09:54:59;94969.94;;;11.14;79.60
18201;BME280;9226;47.858;9.594;2022-10-01T09:57:30;94966.31;;;11.15;79.01
18201;BME280;9226;47.858;9.594;2022-10-01T10:02:36;94969.94;;;11.24;79.94
18201;BME280;9226;47.858;9.594;2022-10-01T10:05:06;94973.13;;;11.18;79.60
18201;BME280;9226;47.858;9.594;2022-10-01T10:07:33;94973.13;;;11.18;80.22
18201;BME280;9226;47.858;9.594;2022-10-01T10:12:47;94971.91;;;11.12;80.65
18201;BME280;9226;47.858;9.594;2022-10-01T10:15:20;94984.75;;;11.17;81.02
18201;BME280;9226;47.858;9.594;2022-10-01T10:17:48;94986.72;;;11.15;81.02
18201;BME280;9226;47.858;9.594;2022-10-01T10:20:39;94988.66;;;11.22;81.43
18201;BME280;9226;47.858;9.594;2022-10-01T10:23:15;94985.31;;;11.20;81.21
18201;BME280;9226;47.858;9.594;2022-10-01T10:25:41;94978.91;;;11.13;81.27
18201;BME280;9226;47.858;9.594;2022-10-01T10:28:27;94981.09;;;11.18;80.93
18201;BME280;9226;47.858;9.594;2022-10-01T10:30:55;94979.16;;;11.30;81.11
18201;BME280;9226;47.858;9.594;2022-10-01T10:33:23;94991.31;;;11.22;81.46
18201;BME280;9226;47.858;9.594;2022-10-01T10:35:58;94993.53;;;11.27;81.49
18201;BME280;9226;47.858;9.594;2022-10-01T10:38:28;94999.31;;;11.32;81.48
18201;BME280;9226;47.858;9.594;2022-10-01T10:40:54;94999.13;;;11.24;82.17
18201;BME280;9226;47.858;9.594;2022-10-01T10:43:24;95004.16;;;11.27;82.45
18201;BME280;9226;47.858;9.594;2022-10-01T10:45:51;95013.97;;;11.36;81.95
18201;BME280;9226;47.858;9.594;2022-10-01T10:48:36;94998.44;;;11.22;82.49
18201;BME280;9226;47.858;9.594;2022-10-01T10:51:04;94994.81;;;11.13;82.60
18201;BME280;9226;47.858;9.594;2022-10-01T10:53:44;94993.69;;;11.16;82.07
18201;BME280;9226;47.858;9.594;2022-10-01T10:56:21;95004.34;;;11.35;82.05
18201;BME280;9226;47.858;9.594;2022-10-01T10:58:51;95020.53;;;11.42;82.31
18201;BME280;9226;47.858;9.594;2022-10-01T11:01:24;95004.03;;;11.48;81.87
18201;BME280;9226;47.858;9.594;2022-10-01T11:03:57;95024.72;;;11.45;81.74
18201;BME280;9226;47.858;9.594;2022-10-01T11:06:24;95014.94;;;11.45;81.70
18201;BME280;9226;47.858;9.594;2022-10-01T11:08:58;95026.94;;;11.59;81.01
18201;BME280;9226;47.858;9.594;2022-10-01T11:11:52;95020.38;;;11.63;80.52
18201;BME280;9226;47.858;9.594;2022-10-01T11:14:57;95024.16;;;11.51;80.57
18201;BME280;9226;47.858;9.594;2022-10-01T11:17:41;95016.34;;;11.39;81.45
18201;BME280;9226;47.858;9.594;2022-10-01T11:28:35;95026.81;;;11.61;81.45
18201;BME280;9226;47.858;9.594;2022-10-01T11:36:35;95035.91;;;11.58;82.32
18201;BME280;9226;47.858;9.594;2022-10-01T11:39:10;95046.69;;;11.56;82.46
18201;BME280;9226;47.858;9.594;2022-10-01T11:41:42;95039.00;;;11.44;82.53
18201;BME280;9226;47.858;9.594;2022-10-01T11:44:20;95037.31;;;11.43;83.11
18201;BME280;9226;47.858;9.594;2022-10-01T11:46:55;95039.00;;;11.53;82.00
18201;BME280;9226;47.858;9.594;2022-10-01T11:52:41;95044.28;;;11.63;81.95
18201;BME280;9226;47.858;9.594;2022-10-01T11:58:16;95041.09;;;11.59;82.32
18201;BME280;9226;47.858;9.594;2022-10-01T12:01:14;95057.72;;;11.52;81.12
18201;BME280;9226;47.858;9.594;2022-10-01T12:09:18;95031.03;;;11.53;81.69
18201;BME280;9226;47.858;9.594;2022-10-01T12:12:12;95027.78;;;11.40;82.55
18201;BME280;9226;47.858;9.594;2022-10-01T12:14:48;95033.25;;;11.58;81.85
18201;BME280;9226;47.858;9.594;2022-10-01T12:19:49;95035.78;;;11.50;82.22
18201;BME280;9226;47.858;9.594;2022-10-01T12:22:36;95041.50;;;11.55;81.17
18201;BME280;9226;47.858;9.594;2022-10-01T12:25:02;95036.59;;;11.60;80.92
18201;BME280;9226;47.858;9.594;2022-10-01T12:27:34;95035.09;;;11.57;81.24
18201;BME280;9226;47.858;9.594;2022-10-01T12:30:06;95028.78;;;11.58;80.25
18201;BME280;9226;47.858;9.594;2022-10-01T12:43:31;95023.72;;;11.85;80.25
18201;BME280;9226;47.858;9.594;2022-10-01T12:49:23;95034.22;;;11.96;79.85
18201;BME280;9226;47.858;9.594;2022-10-01T12:52:23;95036.97;;;12.04;78.59
18201;BME280;9226;47.858;9.594;2022-10-01T13:00:19;95016.00;;;12.01;77.93
18201;BME280;9226;47.858;9.594;2022-10-01T13:06:22;94989.25;;;12.03;77.94
18201;BME280;9226;47.858;9.594;2022-10-01T13:13:39;95019.44;;;12.21;78.03
18201;BME280;9226;47.858;9.594;2022-10-01T13:19:17;95019.78;;;12.08;78.22
18201;BME280;9226;47.858;9.594;2022-10-01T13:27:20;95038.38;;;12.08;78.16
18201;BME280;9226;47.858;9.594;2022-10-01T13:30:00;95038.97;;;12.02;78.80
18201;BME280;9226;47.858;9.594;2022-10-01T13:32:36;95028.53;;;12.19;78.33
18201;BME280;9226;47.858;9.594;2022-10-01T13:35:34;95022.44;;;12.08;79.02
18201;BME280;9226;47.858;9.594;2022-10-01T13:38:00;95022.16;;;12.11;79.85
18201;BME280;9226;47.858;9.594;2022-10-01T13:40:31;95045.50;;;12.18;79.31
18201;BME280;9226;47.858;9.594;2022-10-01T13:43:01;95038.03;;;12.31;79.58
18201;BME280;9226;47.858;9.594;2022-10-01T13:51:07;95049.94;;;12.27;79.79
18201;BME280;9226;47.858;9.594;2022-10-01T13:53:48;95046.97;;;12.30;79.99
18201;BME280;9226;47.858;9.594;2022-10-01T13:56:33;95039.72;;;12.32;79.98
18201;BME280;9226;47.858;9.594;2022-10-01T13:59:02;95053.94;;;12.41;80.00
18201;BME280;9226;47.858;9.594;2022-10-01T14:01:35;95062.06;;;12.39;80.37
18201;BME280;9226;47.858;9.594;2022-10-01T14:11:51;95071.75;;;12.40;80.85
18201;BME280;9226;47.858;9.594;2022-10-01T14:14:38;95062.38;;;12.36;81.28
18201;BME280;9226;47.858;9.594;2022-10-01T14:17:31;95054.25;;;12.38;81.63
18201;BME280;9226;47.858;9.594;2022-10-01T14:19:57;95057.16;;;12.44;81.40
18201;BME280;9226;47.858;9.594;2022-10-01T14:38:20;95066.44;;;12.40;82.63
18201;BME280;9226;47.858;9.594;2022-10-01T14:40:47;95069.34;;;12.47;82.48
18201;BME280;9226;47.858;9.594;2022-10-01T14:43:25;95077.78;;;12.33;83.66
18201;BME280;9226;47.858;9.594;2022-10-01T14:48:23;95083.06;;;12.42;83.74
18201;BME280;9226;47.858;9.594;2022-10-01T14:50:51;95085.03;;;12.40;84.25
18201;BME280;9226;47.858;9.594;2022-10-01T14:53:21;95083.13;;;12.23;85.24
18201;BME280;9226;47.858;9.594;2022-10-01T14:55:49;95085.50;;;12.26;85.24
18201;BME280;9226;47.858;9.594;2022-10-01T15:01:04;95095.75;;;12.21;86.24
18201;BME280;9226;47.858;9.594;2022-10-01T15:03:37;95091.50;;;12.28;85.94
18201;BME280;9226;47.858;9.594;2022-10-01T15:06:12;95090.25;;;12.32;85.52
18201;BME280;9226;47.858;9.594;2022-10-01T15:08:45;95092.09;;;12.22;85.80
18201;BME280;9226;47.858;9.594;2022-10-01T15:11:28;95093.50;;;12.26;86.03
18201;BME280;9226;47.858;9.594;2022-10-01T15:14:00;95100.47;;;12.27;85.33
18201;BME280;9226;47.858;9.594;2022-10-01T15:16:27;95105.13;;;12.15;86.69
18201;BME280;9226;47.858;9.594;2022-10-01T15:18:57;95107.53;;;12.08;86.78
18201;BME280;9226;47.858;9.594;2022-10-01T15:24:02;95110.59;;;12.13;86.56
18201;BME280;9226;47.858;9.594;2022-10-01T15:26:29;95118.16;;;12.08;86.37
18201;BME280;9226;47.858;9.594;2022-10-01T15:29:13;95128.34;;;12.03;86.56
18201;BME280;9226;47.858;9.594;2022-10-01T15:31:39;95111.72;;;12.01;86.91
18201;BME280;9226;47.858;9.594;2022-10-01T15:34:13;95130.47;;;12.19;85.82
18201;BME280;9226;47.858;9.594;2022-10-01T15:36:40;95120.94;;;12.17;86.40
18201;BME280;9226;47.858;9.594;2022-10-01T15:39:39;95128.22;;;12.05;86.66
18201;BME280;9226;47.858;9.594;2022-10-01T15:42:26;95117.59;;;12.15;86.68
18201;BME280;9226;47.858;9.594;2022-10-01T15:45:19;95101.91;;;12.21;86.17
18201;BME280;9226;47.858;9.594;2022-10-01T15:47:52;95117.88;;;12.11;87.12
18201;BME280;9226;47.858;9.594;2022-10-01T15:50:32;95115.63;;;12.17;86.65
18201;BME280;9226;47.858;9.594;2022-10-01T15:53:03;95108.59;;;12.16;87.02
18201;BME280;9226;47.858;9.594;2022-10-01T15:55:37;95122.31;;;12.30;86.48
18201;BME280;9226;47.858;9.594;2022-10-01T16:05:54;95109.41;;;12.36;86.89
18201;BME280;9226;47.858;9.594;2022-10-01T16:08:24;95115.00;;;12.42;86.68
18201;BME280;9226;47.858;9.594;2022-10-01T16:11:15;95131.53;;;12.36;86.63
18201;BME280;9226;47.858;9.594;2022-10-01T16:13:43;95132.41;;;12.37;86.92
18201;BME280;9226;47.858;9.594;2022-10-01T16:18:35;95139.94;;;12.41;86.75